createdAt,value
2018-10-01T00:01:10.659Z,98356.87
2018-10-01T00:03:39.067Z,98362.55
2018-10-01T00:06:07.511Z,98362.74
2018-10-01T00:08:35.808Z,98372.85
2018-10-01T00:11:04.531Z,98378.87
2018-10-01T00:13:32.962Z,98378.89
2018-10-01T00:16:01.347Z,98372.12
2018-10-01T00:18:29.568Z,98378.08
2018-10-01T00:21:03.132Z,98379.16
2018-10-01T00:23:31.311Z,98376.28
2018-10-01T00:25:59.479Z,98372.32
2018-10-01T00:28:27.716Z,98366.28
2018-10-01T00:30:55.931Z,98370.52
2018-10-01T00:33:24.240Z,98375.72
2018-10-01T00:35:52.375Z,98376.75
2018-10-01T00:38:20.574Z,98384.45
2018-10-01T00:40:48.759Z,98374.10
2018-10-01T00:43:16.952Z,98373.22
2018-10-01T00:45:45.152Z,98367.44
2018-10-01T00:48:13.304Z,98363.25
2018-10-01T00:50:41.492Z,98360.02
2018-10-01T00:53:09.737Z,98364.57
2018-10-01T00:55:37.893Z,98359.89
2018-10-01T00:58:06.271Z,98363.87
2018-10-01T01:00:34.595Z,98369.36
2018-10-01T01:03:02.852Z,98363.87
2018-10-01T01:05:31.091Z,98375.11
2018-10-01T01:07:59.839Z,98368.67
2018-10-01T01:10:28.046Z,98371.66
2018-10-01T01:12:56.252Z,98367.57
2018-10-01T01:15:24.420Z,98362.23
2018-10-01T01:17:52.576Z,98359.66
2018-10-01T01:20:21.665Z,98357.98
2018-10-01T01:22:49.863Z,98362.45
2018-10-01T01:25:18.092Z,98365.34
2018-10-01T01:27:46.279Z,98365.22
2018-10-01T01:30:14.483Z,98360.51
2018-10-01T01:32:42.704Z,98369.80
2018-10-01T01:35:10.936Z,98369.93
2018-10-01T01:37:39.127Z,98373.58
2018-10-01T01:40:07.449Z,98368.17
2018-10-01T01:42:35.711Z,98362.11
2018-10-01T01:45:04.409Z,98362.43
2018-10-01T01:47:32.596Z,98366.19
2018-10-01T01:50:00.753Z,98365.60
2018-10-01T01:52:28.959Z,98368.39
2018-10-01T01:54:57.150Z,98361.92
2018-10-01T01:57:25.452Z,98360.26
2018-10-01T01:59:53.603Z,98357.80
2018-10-01T02:02:21.775Z,98354.50
2018-10-01T02:04:50.012Z,98351.77
2018-10-01T02:07:18.307Z,98354.02
2018-10-01T02:09:46.568Z,98356.45
2018-10-01T02:12:14.700Z,98360.75
2018-10-01T02:14:42.949Z,98361.04
2018-10-01T02:17:11.597Z,98363.89
2018-10-01T02:19:39.834Z,98366.03
2018-10-01T02:22:07.978Z,98362.35
2018-10-01T02:24:36.123Z,98367.99
2018-10-01T02:27:04.303Z,98372.13
2018-10-01T02:29:32.543Z,98375.94
2018-10-01T02:32:00.741Z,98372.64
2018-10-01T02:34:28.896Z,98369.02
2018-10-01T02:36:57.347Z,98369.24
2018-10-01T02:39:25.487Z,98372.64
2018-10-01T02:41:54.109Z,98370.75
2018-10-01T02:44:22.350Z,98367.78
2018-10-01T02:46:50.500Z,98358.83
2018-10-01T02:49:18.768Z,98360.10
2018-10-01T02:51:52.347Z,98360.58
2018-10-01T02:54:32.957Z,98363.75
2018-10-01T02:57:01.935Z,98365.98
2018-10-01T02:59:30.175Z,98373.45
2018-10-01T03:01:58.343Z,98368.55
2018-10-01T03:04:27.365Z,98369.64
2018-10-01T03:06:55.545Z,98365.60
2018-10-01T03:09:23.826Z,98368.05
2018-10-01T03:11:51.991Z,98366.50
2018-10-01T03:14:20.208Z,98365.83
2018-10-01T03:16:48.514Z,98369.48
2018-10-01T03:19:16.691Z,98366.11
2018-10-01T03:21:44.863Z,98357.91
2018-10-01T03:24:12.991Z,98353.48
2018-10-01T03:26:41.164Z,98357.56
2018-10-01T03:29:09.297Z,98357.30
2018-10-01T03:31:37.511Z,98356.20
2018-10-01T03:34:05.671Z,98356.74
2018-10-01T03:36:33.823Z,98367.11
2018-10-01T03:39:02.221Z,98363.67
2018-10-01T03:41:30.557Z,98366.19
2018-10-01T03:43:58.798Z,98373.61
2018-10-01T03:46:26.949Z,98375.05
2018-10-01T03:48:55.100Z,98366.30
2018-10-01T03:51:23.292Z,98370.92
2018-10-01T03:53:51.551Z,98368.87
2018-10-01T03:56:19.831Z,98366.71
2018-10-01T03:58:48.379Z,98376.85
2018-10-01T04:01:16.577Z,98367.23
2018-10-01T04:03:44.742Z,98380.43
2018-10-01T04:06:12.931Z,98379.06
2018-10-01T04:08:41.276Z,98378.39
2018-10-01T04:11:09.411Z,98387.84
2018-10-01T04:13:37.568Z,98380.99
2018-10-01T04:16:05.763Z,98389.02
2018-10-01T04:18:33.948Z,98383.98
2018-10-01T04:21:02.204Z,98388.88
2018-10-01T04:23:30.373Z,98390.76
2018-10-01T04:25:58.533Z,98391.79
2018-10-01T04:28:27.756Z,98390.76
2018-10-01T04:30:55.888Z,98406.36
2018-10-01T04:33:24.088Z,98404.16
2018-10-01T04:35:52.251Z,98404.44
2018-10-01T04:38:20.545Z,98411.12
2018-10-01T04:40:48.870Z,98410.29
2018-10-01T04:43:16.988Z,98417.36
2018-10-01T04:45:45.160Z,98422.74
2018-10-01T04:48:13.358Z,98425.56
2018-10-01T04:50:41.612Z,98430.77
2018-10-01T04:53:10.065Z,98437.54
2018-10-01T04:55:38.275Z,98445.90
2018-10-01T04:58:06.540Z,98444.58
2018-10-01T05:00:34.747Z,98449.61
2018-10-01T05:03:02.979Z,98458.09
2018-10-01T05:05:31.111Z,98454.77
2018-10-01T05:07:59.963Z,98457.03
2018-10-01T05:10:28.218Z,98460.70
2018-10-01T05:12:56.414Z,98462.90
2018-10-01T05:15:24.689Z,98465.19
2018-10-01T05:17:52.861Z,98472.42
2018-10-01T05:20:21.015Z,98477.11
2018-10-01T05:22:49.301Z,98477.87
2018-10-01T05:25:17.469Z,98481.98
2018-10-01T05:27:45.644Z,98483.80
2018-10-01T05:30:13.779Z,98485.47
2018-10-01T05:32:42.019Z,98485.77
2018-10-01T05:35:10.169Z,98484.39
2018-10-01T05:37:38.444Z,98489.20
2018-10-01T05:40:06.586Z,98491.72
2018-10-01T05:42:34.747Z,98496.94
2018-10-01T05:45:02.886Z,98494.23
2018-10-01T05:47:31.229Z,98497.24
2018-10-01T05:49:59.380Z,98499.70
2018-10-01T05:52:27.661Z,98501.28
2018-10-01T05:54:56.025Z,98507.56
2018-10-01T05:57:24.243Z,98510.59
2018-10-01T05:59:52.458Z,98514.03
2018-10-01T06:02:20.807Z,98514.60
2018-10-01T06:04:49.174Z,98514.03
2018-10-01T06:07:17.335Z,98519.97
2018-10-01T06:09:45.511Z,98522.86
2018-10-01T06:12:13.851Z,98522.52
2018-10-01T06:14:42.117Z,98526.67
2018-10-01T06:17:10.719Z,98530.61
2018-10-01T06:19:38.977Z,98533.23
2018-10-01T06:22:07.163Z,98539.17
2018-10-01T06:24:35.360Z,98540.66
2018-10-01T06:27:03.525Z,98546.05
2018-10-01T06:29:32.574Z,98551.50
2018-10-01T06:32:00.740Z,98547.63
2018-10-01T06:34:29.273Z,98558.92
2018-10-01T06:36:57.465Z,98559.19
2018-10-01T06:39:25.699Z,98559.02
2018-10-01T06:41:54.360Z,98564.14
2018-10-01T06:44:22.357Z,98565.39
2018-10-01T06:46:50.758Z,98564.41
2018-10-01T06:49:19.042Z,98571.16
2018-10-01T06:51:47.645Z,98565.28
2018-10-01T06:54:16.540Z,98573.41
2018-10-01T06:56:44.692Z,98568.52
2018-10-01T06:59:12.863Z,98569.89
2018-10-01T07:01:41.097Z,98574.22
2018-10-01T07:04:09.271Z,98581.98
2018-10-01T07:06:37.467Z,98583.73
2018-10-01T07:09:07.711Z,98589.38
2018-10-01T07:11:36.117Z,98596.18
2018-10-01T07:14:04.116Z,98591.56
2018-10-01T07:16:32.476Z,98599.89
2018-10-01T07:19:00.536Z,98603.15
2018-10-01T07:21:28.737Z,98606.34
2018-10-01T07:23:57.020Z,98606.44
2018-10-01T07:26:25.243Z,98605.13
2018-10-01T07:28:53.383Z,98602.86
2018-10-01T07:31:21.700Z,98616.45
2018-10-01T07:33:49.861Z,98611.19
2018-10-01T07:36:18.004Z,98618.05
2018-10-01T07:38:46.189Z,98622.05
2018-10-01T07:41:14.429Z,98628.63
2018-10-01T07:43:42.746Z,98627.87
2018-10-01T07:46:11.209Z,98638.83
2018-10-01T07:48:39.445Z,98642.08
2018-10-01T07:51:07.868Z,98655.14
2018-10-01T07:53:35.996Z,98646.82
2018-10-01T07:56:04.056Z,98649.78
2018-10-01T07:58:32.225Z,98654.72
2018-10-01T08:01:00.524Z,98658.14
2018-10-01T08:03:28.924Z,98665.28
2018-10-01T08:05:57.263Z,98670.23
2018-10-01T08:08:25.565Z,98670.52
2018-10-01T08:10:53.791Z,98678.89
2018-10-01T08:13:21.947Z,98677.19
2018-10-01T08:15:50.585Z,98681.49
2018-10-01T08:18:18.751Z,98686.20
2018-10-01T08:20:47.060Z,98691.81
2018-10-01T08:23:15.429Z,98697.13
2018-10-01T08:25:43.720Z,98700.69
2018-10-01T08:28:11.890Z,98703.08
2018-10-01T08:30:40.075Z,98712.67
2018-10-01T08:33:08.256Z,98713.81
2018-10-01T08:35:36.419Z,98710.88
2018-10-01T08:38:04.648Z,98709.92
2018-10-01T08:40:32.740Z,98715.30
2018-10-01T08:43:01.028Z,98711.05
2018-10-01T08:45:29.204Z,98710.96
2018-10-01T08:47:57.411Z,98715.05
2018-10-01T08:50:33.965Z,98707.80
2018-10-01T08:53:13.391Z,98717.20
2018-10-01T08:55:41.552Z,98718.63
2018-10-01T08:58:09.695Z,98721.22
2018-10-01T09:00:38.863Z,98719.15
2018-10-01T09:03:06.994Z,98724.90
2018-10-01T09:05:35.264Z,98720.01
2018-10-01T09:08:03.371Z,98719.58
2018-10-01T09:10:31.604Z,98720.94
2018-10-01T09:12:59.805Z,98720.37
2018-10-01T09:15:28.002Z,98715.47
2018-10-01T09:17:56.150Z,98717.48
2018-10-01T09:20:24.460Z,98721.48
2018-10-01T09:22:52.581Z,98720.54
2018-10-01T09:25:20.759Z,98728.09
2018-10-01T09:27:48.935Z,98725.28
2018-10-01T09:30:17.110Z,98719.87
2018-10-01T09:32:45.267Z,98727.39
2018-10-01T09:35:13.484Z,98732.05
2018-10-01T09:37:41.583Z,98731.20
2018-10-01T09:40:10.708Z,98734.90
2018-10-01T09:42:38.913Z,98743.09
2018-10-01T09:45:07.139Z,98737.95
2018-10-01T09:47:35.370Z,98739.05
2018-10-01T09:50:03.507Z,98742.73
2018-10-01T09:52:31.759Z,98736.84
2018-10-01T09:55:00.239Z,98750.72
2018-10-01T09:57:28.524Z,98746.98
2018-10-01T09:59:56.660Z,98751.78
2018-10-01T10:02:24.895Z,98753.36
2018-10-01T10:04:53.189Z,98762.67
2018-10-01T10:07:21.378Z,98756.92
2018-10-01T10:09:49.659Z,98767.89
2018-10-01T10:12:17.839Z,98772.90
2018-10-01T10:14:46.003Z,98767.27
2018-10-01T10:17:14.144Z,98767.59
2018-10-01T10:19:42.344Z,98759.25
2018-10-01T10:22:10.577Z,98770.23
2018-10-01T10:24:38.737Z,98770.45
2018-10-01T10:27:07.059Z,98772.88
2018-10-01T10:29:35.325Z,98788.91
2018-10-01T10:32:03.606Z,98789.71
2018-10-01T10:34:31.746Z,98784.11
2018-10-01T10:36:59.952Z,98785.73
2018-10-01T10:39:28.650Z,98789.47
2018-10-01T10:41:56.999Z,98790.07
2018-10-01T10:44:25.104Z,98788.47
2018-10-01T10:46:53.388Z,98793.70
2018-10-01T10:49:21.639Z,98791.02
2018-10-01T10:51:49.846Z,98793.94
2018-10-01T10:54:18.016Z,98793.97
2018-10-01T10:56:46.269Z,98793.99
2018-10-01T10:59:14.500Z,98792.31
2018-10-01T11:01:42.753Z,98790.18
2018-10-01T11:04:11.089Z,98791.35
2018-10-01T11:06:39.432Z,98793.87
2018-10-01T11:09:09.032Z,98788.83
2018-10-01T11:11:37.511Z,98788.58
2018-10-01T11:14:05.980Z,98796.48
2018-10-01T11:16:34.001Z,98795.44
2018-10-01T11:19:02.335Z,98796.00
2018-10-01T11:21:30.551Z,98795.11
2018-10-01T11:23:58.712Z,98797.30
2018-10-01T11:26:26.936Z,98799.30
2018-10-01T11:28:55.227Z,98794.10
2018-10-01T11:31:23.483Z,98794.92
2018-10-01T11:33:51.770Z,98796.97
2018-10-01T11:36:19.899Z,98796.11
2018-10-01T11:38:48.403Z,98801.59
2018-10-01T11:41:16.734Z,98796.09
2018-10-01T11:43:45.826Z,98799.66
2018-10-01T11:46:13.999Z,98800.34
2018-10-01T11:48:42.228Z,98805.23
2018-10-01T11:51:10.581Z,98802.86
2018-10-01T11:53:38.598Z,98809.77
2018-10-01T11:56:06.872Z,98813.26
2018-10-01T11:58:35.031Z,98802.20
2018-10-01T12:01:03.176Z,98801.02
2018-10-01T12:03:31.560Z,98799.38
2018-10-01T12:05:59.737Z,98805.66
2018-10-01T12:08:27.881Z,98799.95
2018-10-01T12:10:56.169Z,98804.33
2018-10-01T12:13:24.697Z,98806.10
2018-10-01T12:15:53.042Z,98794.63
2018-10-01T12:18:21.160Z,98806.88
2018-10-01T12:20:49.354Z,98802.59
2018-10-01T12:23:17.638Z,98794.33
2018-10-01T12:25:47.159Z,98804.36
2018-10-01T12:28:15.399Z,98801.20
2018-10-01T12:30:43.688Z,98803.97
2018-10-01T12:33:11.944Z,98797.88
2018-10-01T12:35:40.160Z,98800.05
2018-10-01T12:38:08.517Z,98803.88
2018-10-01T12:40:36.789Z,98794.06
2018-10-01T12:43:04.933Z,98794.13
2018-10-01T12:45:33.162Z,98793.11
2018-10-01T12:48:01.268Z,98785.37
2018-10-01T12:50:29.520Z,98785.80
2018-10-01T12:52:57.683Z,98794.05
2018-10-01T12:55:25.850Z,98797.44
2018-10-01T12:57:54.046Z,98777.98
2018-10-01T13:00:22.373Z,98784.39
2018-10-01T13:02:50.515Z,98796.31
2018-10-01T13:05:18.711Z,98804.99
2018-10-01T13:08:09.607Z,98821.77
2018-10-01T13:10:37.761Z,98824.91
2018-10-01T13:13:06.472Z,98843.81
2018-10-01T13:15:34.612Z,98850.59
2018-10-01T13:18:02.778Z,98852.86
2018-10-01T13:20:30.908Z,98841.61
2018-10-01T13:22:59.051Z,98845.63
2018-10-01T13:25:27.199Z,98850.63
2018-10-01T13:27:55.432Z,98842.45
2018-10-01T13:30:23.618Z,98831.95
2018-10-01T13:32:51.796Z,98834.92
2018-10-01T13:35:19.968Z,98834.28
2018-10-01T13:37:48.912Z,98828.64
2018-10-01T13:40:17.004Z,98834.30
2018-10-01T13:42:45.258Z,98826.66
2018-10-01T13:45:13.372Z,98827.31
2018-10-01T13:47:41.806Z,98823.48
2018-10-01T13:50:10.069Z,98820.00
2018-10-01T13:52:38.343Z,98816.17
2018-10-01T13:55:06.532Z,98801.34
2018-10-01T13:57:34.683Z,98807.61
2018-10-01T14:00:02.929Z,98796.80
2018-10-01T14:02:31.170Z,98785.86
2018-10-01T14:04:59.336Z,98787.86
2018-10-01T14:07:27.835Z,98785.06
2018-10-01T14:09:56.071Z,98783.06
2018-10-01T14:12:24.219Z,98779.39
2018-10-01T14:14:52.614Z,98783.41
2018-10-01T14:17:21.031Z,98786.55
2018-10-01T14:19:50.381Z,98776.00
2018-10-01T14:22:18.684Z,98774.07
2018-10-01T14:24:47.094Z,98776.00
2018-10-01T14:27:15.396Z,98780.25
2018-10-01T14:29:43.532Z,98777.84
2018-10-01T14:32:12.000Z,98784.67
2018-10-01T14:34:40.405Z,98789.47
2018-10-01T14:37:08.878Z,98787.20
2018-10-01T14:39:37.255Z,98786.45
2018-10-01T14:42:05.572Z,98793.32
2018-10-01T14:44:33.769Z,98794.25
2018-10-01T14:47:02.026Z,98796.25
2018-10-01T14:49:30.387Z,98803.49
2018-10-01T14:51:58.543Z,98803.41
2018-10-01T14:54:26.780Z,98809.14
2018-10-01T14:56:54.914Z,98807.43
2018-10-01T14:59:23.236Z,98804.84
2018-10-01T15:01:51.443Z,98810.66
2018-10-01T15:04:19.617Z,98808.73
2018-10-01T15:06:47.844Z,98810.48
2018-10-01T15:09:16.095Z,98809.61
2018-10-01T15:11:44.261Z,98802.84
2018-10-01T15:14:12.417Z,98812.63
2018-10-01T15:16:40.552Z,98817.44
2018-10-01T15:19:08.716Z,98822.07
2018-10-01T15:21:36.867Z,98813.05
2018-10-01T15:24:05.039Z,98819.23
2018-10-01T15:26:33.203Z,98824.80
2018-10-01T15:29:01.336Z,98827.20
2018-10-01T15:31:29.943Z,98829.00
2018-10-01T15:33:58.247Z,98840.80
2018-10-01T15:36:26.443Z,98844.41
2018-10-01T15:38:54.711Z,98835.05
2018-10-01T15:41:22.924Z,98834.84
2018-10-01T15:43:51.056Z,98841.86
2018-10-01T15:46:19.389Z,98840.48
2018-10-01T15:48:47.576Z,98845.29
2018-10-01T15:51:15.751Z,98847.03
2018-10-01T15:53:43.899Z,98846.10
2018-10-01T15:56:12.241Z,98845.45
2018-10-01T15:58:40.468Z,98851.55
2018-10-01T16:01:08.639Z,98852.19
2018-10-01T16:03:36.804Z,98852.28
2018-10-01T16:06:05.091Z,98862.11
2018-10-01T16:08:33.268Z,98860.31
2018-10-01T16:11:01.611Z,98861.65
2018-10-01T16:13:29.751Z,98860.79
2018-10-01T16:15:57.924Z,98867.52
2018-10-01T16:18:26.208Z,98863.84
2018-10-01T16:20:54.480Z,98865.66
2018-10-01T16:25:57.247Z,98878.94
2018-10-01T16:28:25.767Z,98874.67
2018-10-01T16:30:54.125Z,98872.91
2018-10-01T16:33:22.306Z,98882.94
2018-10-01T16:35:50.452Z,98879.23
2018-10-01T16:38:18.604Z,98883.88
2018-10-01T16:40:46.884Z,98888.03
2018-10-01T16:43:15.017Z,98882.98
2018-10-01T16:48:16.686Z,98894.02
2018-10-01T16:50:44.942Z,98897.27
2018-10-01T16:53:13.228Z,98903.06
2018-10-01T16:55:41.484Z,98906.92
2018-10-01T16:58:09.720Z,98916.63
2018-10-01T17:00:37.871Z,98926.44
2018-10-01T17:03:06.021Z,98926.84
2018-10-01T17:05:34.421Z,98942.39
2018-10-01T17:08:02.761Z,98944.08
2018-10-01T17:10:31.103Z,98951.64
2018-10-01T17:12:59.308Z,98950.38
2018-10-01T17:15:27.590Z,98964.05
2018-10-01T17:17:55.976Z,98966.61
2018-10-01T17:20:24.184Z,98970.48
2018-10-01T17:22:52.522Z,98974.13
2018-10-01T17:25:20.742Z,98977.12
2018-10-01T17:27:48.980Z,98983.09
2018-10-01T17:30:17.267Z,98987.17
2018-10-01T17:32:45.421Z,98987.30
2018-10-01T17:35:13.575Z,98996.39
2018-10-01T17:37:41.874Z,99002.84
2018-10-01T17:40:10.048Z,99015.88
2018-10-01T17:42:38.505Z,99018.64
2018-10-01T17:45:07.061Z,99025.34
2018-10-01T17:47:35.301Z,99027.23
2018-10-01T17:50:03.760Z,99027.63
2018-10-01T17:52:31.987Z,99030.96
2018-10-01T17:55:00.179Z,99037.70
2018-10-01T17:57:28.744Z,99045.97
2018-10-01T17:59:56.960Z,99050.42
2018-10-01T18:02:25.053Z,99060.25
2018-10-01T18:04:53.488Z,99065.39
2018-10-01T18:07:21.645Z,99072.83
2018-10-01T18:09:49.835Z,99069.59
2018-10-01T18:12:18.084Z,99078.10
2018-10-01T18:14:46.558Z,99087.31
2018-10-01T18:17:14.730Z,99090.89
2018-10-01T18:19:43.148Z,99090.17
2018-10-01T18:22:11.454Z,99094.84
2018-10-01T18:24:39.604Z,99098.20
2018-10-01T18:27:07.748Z,99098.45
2018-10-01T18:29:35.907Z,99106.94
2018-10-01T18:32:04.112Z,99097.12
2018-10-01T18:34:32.275Z,99110.16
2018-10-01T18:37:00.531Z,99109.30
2018-10-01T18:39:30.196Z,99109.42
2018-10-01T18:41:58.412Z,99114.67
2018-10-01T18:44:26.551Z,99112.97
2018-10-01T18:46:54.704Z,99117.75
2018-10-01T18:49:22.874Z,99115.34
2018-10-01T18:51:51.056Z,99128.22
2018-10-01T18:54:19.282Z,99127.96
2018-10-01T18:56:47.543Z,99132.39
2018-10-01T18:59:15.753Z,99129.26
2018-10-01T19:01:43.960Z,99138.86
2018-10-01T19:04:12.113Z,99135.26
2018-10-01T19:06:40.315Z,99141.61
2018-10-01T19:09:09.757Z,99144.70
2018-10-01T19:11:38.231Z,99147.05
2018-10-01T19:14:06.636Z,99147.43
2018-10-01T19:16:34.897Z,99136.11
2018-10-01T19:19:03.118Z,99147.11
2018-10-01T19:21:31.276Z,99149.74
2018-10-01T19:23:59.773Z,99154.97
2018-10-01T19:26:28.306Z,99165.67
2018-10-01T19:28:56.656Z,99168.69
2018-10-01T19:31:24.884Z,99171.61
2018-10-01T19:33:53.531Z,99172.15
2018-10-01T19:36:21.784Z,99179.33
2018-10-01T19:38:49.996Z,99181.38
2018-10-01T19:41:18.223Z,99182.57
2018-10-01T19:43:46.307Z,99179.61
2018-10-01T19:46:14.616Z,99191.19
2018-10-01T19:48:42.763Z,99185.31
2018-10-01T19:51:11.178Z,99189.75
2018-10-01T19:53:39.374Z,99190.44
2018-10-01T19:56:07.832Z,99199.28
2018-10-01T19:58:36.489Z,99202.67
2018-10-01T20:01:04.865Z,99206.91
2018-10-01T20:03:33.054Z,99205.27
2018-10-01T20:06:01.347Z,99212.58
2018-10-01T20:08:29.659Z,99209.02
2018-10-01T20:10:57.895Z,99217.61
2018-10-01T20:13:26.055Z,99219.88
2018-10-01T20:15:54.339Z,99220.54
2018-10-01T20:18:22.486Z,99219.41
2018-10-01T20:20:50.707Z,99223.58
2018-10-01T20:23:18.959Z,99226.41
2018-10-01T20:25:47.260Z,99220.08
2018-10-01T20:28:15.621Z,99219.84
2018-10-01T20:30:43.611Z,99224.37
2018-10-01T20:33:11.745Z,99226.73
2018-10-01T20:35:40.174Z,99227.51
2018-10-01T20:38:08.280Z,99229.94
2018-10-01T20:40:36.468Z,99245.09
2018-10-01T20:43:04.616Z,99235.59
2018-10-01T20:45:32.777Z,99232.03
2018-10-01T20:48:01.116Z,99231.61
2018-10-01T20:50:29.426Z,99229.25
2018-10-01T20:52:57.631Z,99234.23
2018-10-01T20:55:25.832Z,99238.68
2018-10-01T20:57:54.055Z,99239.41
2018-10-01T21:00:22.288Z,99235.55
2018-10-01T21:02:50.442Z,99235.58
2018-10-01T21:05:18.692Z,99234.38
2018-10-01T21:07:46.929Z,99229.41
2018-10-01T21:10:15.324Z,99239.87
2018-10-01T21:12:43.458Z,99241.69
2018-10-01T21:15:11.723Z,99241.77
2018-10-01T21:17:39.924Z,99248.77
2018-10-01T21:20:08.092Z,99244.48
2018-10-01T21:22:36.376Z,99244.13
2018-10-01T21:25:05.152Z,99246.28
2018-10-01T21:27:34.425Z,99243.94
2018-10-01T21:30:02.757Z,99248.02
2018-10-01T21:32:30.908Z,99248.33
2018-10-01T21:34:59.103Z,99252.45
2018-10-01T21:37:27.253Z,99252.39
2018-10-01T21:40:05.626Z,99255.67
2018-10-01T21:42:33.894Z,99267.22
2018-10-01T21:45:02.674Z,99267.03
2018-10-01T21:47:31.358Z,99268.72
2018-10-01T21:49:59.607Z,99262.74
2018-10-01T21:52:28.924Z,99263.27
2018-10-01T21:54:57.456Z,99270.79
2018-10-01T21:57:25.701Z,99271.48
2018-10-01T22:02:37.892Z,99272.02
2018-10-01T22:05:06.933Z,99275.66
2018-10-01T22:07:36.612Z,99274.77
2018-10-01T22:10:05.402Z,99279.14
2018-10-01T22:12:33.559Z,99278.48
2018-10-01T22:15:01.698Z,99277.86
2018-10-01T22:17:29.916Z,99279.08
2018-10-01T22:19:58.292Z,99275.29
2018-10-01T22:22:26.577Z,99278.25
2018-10-01T22:24:54.770Z,99281.21
2018-10-01T22:27:22.895Z,99285.81
2018-10-01T22:29:51.287Z,99287.53
2018-10-01T22:32:19.640Z,99280.50
2018-10-01T22:34:48.191Z,99274.23
2018-10-01T22:37:16.503Z,99279.61
2018-10-01T22:39:44.716Z,99272.72
2018-10-01T22:42:12.991Z,99272.30
2018-10-01T22:44:41.171Z,99271.23
2018-10-01T22:47:09.379Z,99270.59
2018-10-01T22:49:37.969Z,99279.59
2018-10-01T22:52:06.107Z,99274.67
2018-10-01T22:54:34.331Z,99277.41
2018-10-01T22:57:02.467Z,99281.73
2018-10-01T22:59:30.714Z,99281.70
2018-10-01T23:01:58.919Z,99282.61
2018-10-01T23:04:27.135Z,99286.23
2018-10-01T23:06:55.282Z,99288.39
2018-10-01T23:09:23.453Z,99287.75
2018-10-01T23:11:51.598Z,99293.16
2018-10-01T23:14:19.795Z,99294.14
2018-10-01T23:16:48.166Z,99292.74
2018-10-01T23:19:16.339Z,99296.14
2018-10-01T23:21:44.511Z,99295.02
2018-10-01T23:24:12.663Z,99299.49
2018-10-01T23:26:40.960Z,99291.44
2018-10-01T23:29:09.736Z,99290.69
2018-10-01T23:31:37.911Z,99298.27
2018-10-01T23:34:06.203Z,99293.58
2018-10-01T23:36:34.366Z,99296.42
2018-10-01T23:39:03.087Z,99299.26
2018-10-01T23:41:31.239Z,99298.53
2018-10-01T23:43:59.467Z,99304.25
2018-10-01T23:46:27.699Z,99300.61
2018-10-01T23:48:55.815Z,99299.95
2018-10-01T23:51:24.048Z,99300.33
2018-10-01T23:53:52.475Z,99298.23
2018-10-01T23:56:20.711Z,99296.91
2018-10-01T23:58:49.028Z,99297.66
